sensor_id;sensor_type;location;lat;lon;timestamp;temperature;humidity
53310;DHT22;39197;53.200;5.792;2023-02-07T00:00:45;3.10;99.90
53310;DHT22;39197;53.200;5.792;2023-02-07T00:03:11;3.00;99.90
53310;DHT22;39197;53.200;5.792;2023-02-07T00:05:37;3.00;99.90
53310;DHT22;39197;53.200;5.792;2023-02-07T00:08:04;2.90;99.90
53310;DHT22;39197;53.200;5.792;2023-02-07T00:10:30;2.90;99.90
53310;DHT22;39197;53.200;5.792;2023-02-07T00:12:55;3.00;99.90
53310;DHT22;39197;53.200;5.792;2023-02-07T00:15:21;2.90;99.90
53310;DHT22;39197;53.200;5.792;2023-02-07T00:17:47;2.90;99.90
53310;DHT22;39197;53.200;5.792;2023-02-07T00:20:12;2.80;99.90
53310;DHT22;39197;53.200;5.792;2023-02-07T00:22:38;2.80;99.90
53310;DHT22;39197;53.200;5.792;2023-02-07T00:25:04;2.80;99.90
53310;DHT22;39197;53.200;5.792;2023-02-07T00:27:29;2.80;99.90
53310;DHT22;39197;53.200;5.792;2023-02-07T00:29:55;2.80;99.90
53310;DHT22;39197;53.200;5.792;2023-02-07T00:32:21;2.70;99.90
53310;DHT22;39197;53.200;5.792;2023-02-07T00:34:47;2.70;99.90
53310;DHT22;39197;53.200;5.792;2023-02-07T00:37:15;2.70;99.90
53310;DHT22;39197;53.200;5.792;2023-02-07T00:39:41;2.70;99.90
53310;DHT22;39197;53.200;5.792;2023-02-07T00:42:06;2.70;99.90
53310;DHT22;39197;53.200;5.792;2023-02-07T00:44:32;2.60;99.90
53310;DHT22;39197;53.200;5.792;2023-02-07T00:46:58;2.60;99.90
53310;DHT22;39197;53.200;5.792;2023-02-07T00:49:24;2.50;99.90
53310;DHT22;39197;53.200;5.792;2023-02-07T00:51:50;2.50;99.90
53310;DHT22;39197;53.200;5.792;2023-02-07T00:54:15;2.50;99.90
53310;DHT22;39197;53.200;5.792;2023-02-07T00:56:41;2.40;99.90
53310;DHT22;39197;53.200;5.792;2023-02-07T00:59:07;2.40;99.90
53310;DHT22;39197;53.200;5.792;2023-02-07T01:01:33;2.40;99.90
53310;DHT22;39197;53.200;5.792;2023-02-07T01:03:59;2.40;99.90
53310;DHT22;39197;53.200;5.792;2023-02-07T01:06:25;2.40;99.90
53310;DHT22;39197;53.200;5.792;2023-02-07T01:08:56;2.30;99.90
53310;DHT22;39197;53.200;5.792;2023-02-07T01:11:22;2.30;99.90
53310;DHT22;39197;53.200;5.792;2023-02-07T01:13:47;2.30;99.90
53310;DHT22;39197;53.200;5.792;2023-02-07T01:16:21;2.30;99.90
53310;DHT22;39197;53.200;5.792;2023-02-07T01:18:47;2.20;99.90
53310;DHT22;39197;53.200;5.792;2023-02-07T01:21:21;2.20;99.90
53310;DHT22;39197;53.200;5.792;2023-02-07T01:23:47;2.20;99.90
53310;DHT22;39197;53.200;5.792;2023-02-07T01:26:13;2.20;99.90
53310;DHT22;39197;53.200;5.792;2023-02-07T01:28:39;2.10;99.90
53310;DHT22;39197;53.200;5.792;2023-02-07T01:31:11;2.10;99.90
53310;DHT22;39197;53.200;5.792;2023-02-07T01:33:37;2.10;99.90
53310;DHT22;39197;53.200;5.792;2023-02-07T01:36:11;2.10;99.90
53310;DHT22;39197;53.200;5.792;2023-02-07T01:38:37;2.10;99.90
53310;DHT22;39197;53.200;5.792;2023-02-07T01:41:03;2.00;99.90
53310;DHT22;39197;53.200;5.792;2023-02-07T01:43:30;2.10;99.90
53310;DHT22;39197;53.200;5.792;2023-02-07T01:45:55;2.00;99.90
53310;DHT22;39197;53.200;5.792;2023-02-07T01:48:33;2.00;99.90
53310;DHT22;39197;53.200;5.792;2023-02-07T01:51:03;2.00;99.90
53310;DHT22;39197;53.200;5.792;2023-02-07T01:53:30;2.00;99.90
53310;DHT22;39197;53.200;5.792;2023-02-07T01:56:01;1.90;99.90
53310;DHT22;39197;53.200;5.792;2023-02-07T01:58:29;1.90;99.90
53310;DHT22;39197;53.200;5.792;2023-02-07T02:00:56;1.90;99.90
53310;DHT22;39197;53.200;5.792;2023-02-07T02:03:23;1.90;99.90
53310;DHT22;39197;53.200;5.792;2023-02-07T02:05:49;1.80;99.90
53310;DHT22;39197;53.200;5.792;2023-02-07T02:08:16;1.80;99.90
53310;DHT22;39197;53.200;5.792;2023-02-07T02:19:48;1.90;99.90
53310;DHT22;39197;53.200;5.792;2023-02-07T02:22:58;1.90;99.90
53310;DHT22;39197;53.200;5.792;2023-02-07T02:33:42;1.70;99.90
53310;DHT22;39197;53.200;5.792;2023-02-07T02:39:21;1.70;99.90
53310;DHT22;39197;53.200;5.792;2023-02-07T02:42:09;1.60;99.90
53310;DHT22;39197;53.200;5.792;2023-02-07T02:44:58;1.60;99.90
53310;DHT22;39197;53.200;5.792;2023-02-07T02:47:27;1.70;99.90
53310;DHT22;39197;53.200;5.792;2023-02-07T02:49:53;1.60;99.90
53310;DHT22;39197;53.200;5.792;2023-02-07T02:52:19;1.60;99.90
53310;DHT22;39197;53.200;5.792;2023-02-07T02:54:45;1.60;99.90
53310;DHT22;39197;53.200;5.792;2023-02-07T03:08:34;1.50;99.90
53310;DHT22;39197;53.200;5.792;2023-02-07T03:11:10;1.50;99.90
53310;DHT22;39197;53.200;5.792;2023-02-07T03:16:28;1.50;99.90
53310;DHT22;39197;53.200;5.792;2023-02-07T03:19:11;1.50;99.90
53310;DHT22;39197;53.200;5.792;2023-02-07T03:21:50;1.40;99.90
53310;DHT22;39197;53.200;5.792;2023-02-07T03:24:19;1.40;99.90
53310;DHT22;39197;53.200;5.792;2023-02-07T03:26:47;1.40;99.90
53310;DHT22;39197;53.200;5.792;2023-02-07T03:29:17;1.40;99.90
53310;DHT22;39197;53.200;5.792;2023-02-07T03:31:47;1.40;99.90
53310;DHT22;39197;53.200;5.792;2023-02-07T03:34:21;1.30;99.90
53310;DHT22;39197;53.200;5.792;2023-02-07T03:36:57;1.30;99.90
53310;DHT22;39197;53.200;5.792;2023-02-07T03:39:24;1.30;99.90
53310;DHT22;39197;53.200;5.792;2023-02-07T03:41:54;1.20;99.90
53310;DHT22;39197;53.200;5.792;2023-02-07T03:44:22;1.20;99.90
53310;DHT22;39197;53.200;5.792;2023-02-07T03:46:49;1.10;99.90
53310;DHT22;39197;53.200;5.792;2023-02-07T03:49:15;1.10;99.90
53310;DHT22;39197;53.200;5.792;2023-02-07T03:51:43;1.10;99.90
53310;DHT22;39197;53.200;5.792;2023-02-07T03:54:08;1.10;99.90
53310;DHT22;39197;53.200;5.792;2023-02-07T03:56:35;1.00;99.90
53310;DHT22;39197;53.200;5.792;2023-02-07T03:59:01;0.90;99.90
53310;DHT22;39197;53.200;5.792;2023-02-07T04:01:26;0.90;99.90
53310;DHT22;39197;53.200;5.792;2023-02-07T04:03:52;0.90;99.90
53310;DHT22;39197;53.200;5.792;2023-02-07T04:06:18;0.90;99.90
53310;DHT22;39197;53.200;5.792;2023-02-07T04:08:44;0.90;99.90
53310;DHT22;39197;53.200;5.792;2023-02-07T04:11:09;0.90;99.90
53310;DHT22;39197;53.200;5.792;2023-02-07T04:13:35;0.80;99.90
53310;DHT22;39197;53.200;5.792;2023-02-07T04:16:02;0.80;99.90
53310;DHT22;39197;53.200;5.792;2023-02-07T04:18:28;0.80;99.90
53310;DHT22;39197;53.200;5.792;2023-02-07T04:21:05;0.70;99.90
53310;DHT22;39197;53.200;5.792;2023-02-07T04:23:32;0.80;99.90
53310;DHT22;39197;53.200;5.792;2023-02-07T04:25:57;0.70;99.90
53310;DHT22;39197;53.200;5.792;2023-02-07T04:28:23;0.80;99.90
53310;DHT22;39197;53.200;5.792;2023-02-07T04:30:49;0.80;99.90
53310;DHT22;39197;53.200;5.792;2023-02-07T04:33:15;0.70;99.90
53310;DHT22;39197;53.200;5.792;2023-02-07T04:35:41;0.70;99.90
53310;DHT22;39197;53.200;5.792;2023-02-07T04:38:06;0.70;99.90
53310;DHT22;39197;53.200;5.792;2023-02-07T04:40:32;0.70;99.90
53310;DHT22;39197;53.200;5.792;2023-02-07T04:42:58;0.60;99.90
53310;DHT22;39197;53.200;5.792;2023-02-07T04:45:23;0.60;99.90
53310;DHT22;39197;53.200;5.792;2023-02-07T04:47:49;0.60;99.90
53310;DHT22;39197;53.200;5.792;2023-02-07T04:50:15;0.60;99.90
53310;DHT22;39197;53.200;5.792;2023-02-07T04:52:40;0.60;99.90
53310;DHT22;39197;53.200;5.792;2023-02-07T04:55:07;0.60;99.90
53310;DHT22;39197;53.200;5.792;2023-02-07T04:57:32;0.50;99.90
53310;DHT22;39197;53.200;5.792;2023-02-07T04:59:58;0.50;99.90
53310;DHT22;39197;53.200;5.792;2023-02-07T05:02:24;0.50;99.90
53310;DHT22;39197;53.200;5.792;2023-02-07T05:04:49;0.50;99.90
53310;DHT22;39197;53.200;5.792;2023-02-07T05:07:15;0.40;99.90
53310;DHT22;39197;53.200;5.792;2023-02-07T05:09:41;0.40;99.90
53310;DHT22;39197;53.200;5.792;2023-02-07T05:12:07;0.40;99.90
53310;DHT22;39197;53.200;5.792;2023-02-07T05:14:32;0.40;99.90
53310;DHT22;39197;53.200;5.792;2023-02-07T05:16:58;0.40;99.90
53310;DHT22;39197;53.200;5.792;2023-02-07T05:19:24;0.30;99.90
53310;DHT22;39197;53.200;5.792;2023-02-07T05:21:49;0.40;99.90
53310;DHT22;39197;53.200;5.792;2023-02-07T05:24:15;0.30;99.90
53310;DHT22;39197;53.200;5.792;2023-02-07T05:26:40;0.20;99.90
53310;DHT22;39197;53.200;5.792;2023-02-07T05:29:06;0.30;99.90
53310;DHT22;39197;53.200;5.792;2023-02-07T05:31:32;0.30;99.90
53310;DHT22;39197;53.200;5.792;2023-02-07T05:34:16;0.30;99.90
53310;DHT22;39197;53.200;5.792;2023-02-07T05:36:44;0.20;99.90
53310;DHT22;39197;53.200;5.792;2023-02-07T05:39:10;0.20;99.90
53310;DHT22;39197;53.200;5.792;2023-02-07T05:41:35;0.20;99.90
53310;DHT22;39197;53.200;5.792;2023-02-07T05:44:01;0.20;99.90
53310;DHT22;39197;53.200;5.792;2023-02-07T05:46:27;0.10;99.90
53310;DHT22;39197;53.200;5.792;2023-02-07T05:48:53;0.10;99.90
53310;DHT22;39197;53.200;5.792;2023-02-07T05:51:18;0.10;99.90
53310;DHT22;39197;53.200;5.792;2023-02-07T05:53:44;0.10;99.90
53310;DHT22;39197;53.200;5.792;2023-02-07T05:56:09;0.10;99.90
53310;DHT22;39197;53.200;5.792;2023-02-07T05:58:35;0.10;99.90
53310;DHT22;39197;53.200;5.792;2023-02-07T06:01:01;0.00;99.90
53310;DHT22;39197;53.200;5.792;2023-02-07T06:03:26;0.00;99.90
53310;DHT22;39197;53.200;5.792;2023-02-07T06:05:52;0.00;99.90
53310;DHT22;39197;53.200;5.792;2023-02-07T06:08:17;0.00;99.90
53310;DHT22;39197;53.200;5.792;2023-02-07T06:10:43;-0.10;99.90
53310;DHT22;39197;53.200;5.792;2023-02-07T06:13:09;-0.10;99.90
53310;DHT22;39197;53.200;5.792;2023-02-07T06:15:34;-0.10;99.90
53310;DHT22;39197;53.200;5.792;2023-02-07T06:18:00;-0.20;99.90
53310;DHT22;39197;53.200;5.792;2023-02-07T06:20:25;-0.30;99.90
53310;DHT22;39197;53.200;5.792;2023-02-07T06:22:51;-0.30;99.90
53310;DHT22;39197;53.200;5.792;2023-02-07T06:25:17;-0.30;99.90
53310;DHT22;39197;53.200;5.792;2023-02-07T06:27:42;-0.40;99.90
53310;DHT22;39197;53.200;5.792;2023-02-07T06:30:10;-0.40;99.90
53310;DHT22;39197;53.200;5.792;2023-02-07T06:32:36;-0.40;99.90
53310;DHT22;39197;53.200;5.792;2023-02-07T06:35:02;-0.40;99.90
53310;DHT22;39197;53.200;5.792;2023-02-07T06:37:28;-0.40;99.90
53310;DHT22;39197;53.200;5.792;2023-02-07T06:39:53;-0.40;99.90
53310;DHT22;39197;53.200;5.792;2023-02-07T06:42:19;-0.40;99.90
53310;DHT22;39197;53.200;5.792;2023-02-07T06:44:44;-0.40;99.90
53310;DHT22;39197;53.200;5.792;2023-02-07T06:47:10;-0.40;99.90
53310;DHT22;39197;53.200;5.792;2023-02-07T06:49:36;-0.50;99.90
53310;DHT22;39197;53.200;5.792;2023-02-07T06:52:01;-0.50;99.90
53310;DHT22;39197;53.200;5.792;2023-02-07T06:54:27;-0.40;99.90
53310;DHT22;39197;53.200;5.792;2023-02-07T06:56:52;-0.40;99.90
53310;DHT22;39197;53.200;5.792;2023-02-07T06:59:18;-0.40;99.90
53310;DHT22;39197;53.200;5.792;2023-02-07T07:01:43;-0.50;99.90
53310;DHT22;39197;53.200;5.792;2023-02-07T07:04:09;-0.40;99.90
53310;DHT22;39197;53.200;5.792;2023-02-07T07:06:35;-0.50;99.90
53310;DHT22;39197;53.200;5.792;2023-02-07T07:09:00;-0.50;99.90
53310;DHT22;39197;53.200;5.792;2023-02-07T07:11:26;-0.50;99.90
53310;DHT22;39197;53.200;5.792;2023-02-07T07:13:52;-0.50;99.90
53310;DHT22;39197;53.200;5.792;2023-02-07T07:16:17;-0.50;99.90
53310;DHT22;39197;53.200;5.792;2023-02-07T07:18:43;-0.50;99.90
53310;DHT22;39197;53.200;5.792;2023-02-07T07:21:09;-0.50;99.90
53310;DHT22;39197;53.200;5.792;2023-02-07T07:23:35;-0.40;99.90
53310;DHT22;39197;53.200;5.792;2023-02-07T07:26:00;-0.40;99.90
53310;DHT22;39197;53.200;5.792;2023-02-07T07:28:26;-0.40;99.90
53310;DHT22;39197;53.200;5.792;2023-02-07T07:30:52;-0.40;99.90
53310;DHT22;39197;53.200;5.792;2023-02-07T07:33:17;-0.40;99.90
53310;DHT22;39197;53.200;5.792;2023-02-07T07:35:43;-0.40;99.90
53310;DHT22;39197;53.200;5.792;2023-02-07T07:38:08;-0.50;99.90
53310;DHT22;39197;53.200;5.792;2023-02-07T07:40:34;-0.40;99.90
53310;DHT22;39197;53.200;5.792;2023-02-07T07:42:59;-0.40;99.90
53310;DHT22;39197;53.200;5.792;2023-02-07T07:45:25;-0.40;99.90
53310;DHT22;39197;53.200;5.792;2023-02-07T07:47:51;-0.40;99.90
53310;DHT22;39197;53.200;5.792;2023-02-07T07:50:16;-0.40;99.90
53310;DHT22;39197;53.200;5.792;2023-02-07T07:52:42;-0.40;99.90
53310;DHT22;39197;53.200;5.792;2023-02-07T07:55:08;-0.40;99.90
53310;DHT22;39197;53.200;5.792;2023-02-07T07:57:34;-0.40;99.90
53310;DHT22;39197;53.200;5.792;2023-02-07T08:00:00;-0.40;99.90
53310;DHT22;39197;53.200;5.792;2023-02-07T08:02:26;-0.40;99.90
53310;DHT22;39197;53.200;5.792;2023-02-07T08:04:52;-0.40;99.90
53310;DHT22;39197;53.200;5.792;2023-02-07T08:07:18;-0.40;99.90
53310;DHT22;39197;53.200;5.792;2023-02-07T08:09:43;-0.30;99.90
53310;DHT22;39197;53.200;5.792;2023-02-07T08:12:09;-0.30;99.90
53310;DHT22;39197;53.200;5.792;2023-02-07T08:14:34;-0.20;99.90
53310;DHT22;39197;53.200;5.792;2023-02-07T08:17:00;-0.30;99.90
53310;DHT22;39197;53.200;5.792;2023-02-07T08:19:26;-0.20;99.90
53310;DHT22;39197;53.200;5.792;2023-02-07T08:21:51;-0.10;99.90
53310;DHT22;39197;53.200;5.792;2023-02-07T08:24:17;0.00;99.90
53310;DHT22;39197;53.200;5.792;2023-02-07T08:26:43;0.00;99.90
53310;DHT22;39197;53.200;5.792;2023-02-07T08:29:09;0.40;99.90
53310;DHT22;39197;53.200;5.792;2023-02-07T08:31:35;1.20;99.90
53310;DHT22;39197;53.200;5.792;2023-02-07T08:34:00;1.90;99.90
53310;DHT22;39197;53.200;5.792;2023-02-07T08:36:26;2.40;99.90
53310;DHT22;39197;53.200;5.792;2023-02-07T08:38:51;3.20;99.90
53310;DHT22;39197;53.200;5.792;2023-02-07T08:41:17;3.80;99.90
53310;DHT22;39197;53.200;5.792;2023-02-07T08:43:43;4.50;99.90
53310;DHT22;39197;53.200;5.792;2023-02-07T08:46:08;5.00;99.90
53310;DHT22;39197;53.200;5.792;2023-02-07T08:48:34;5.30;99.90
53310;DHT22;39197;53.200;5.792;2023-02-07T08:51:04;5.60;99.90
53310;DHT22;39197;53.200;5.792;2023-02-07T08:53:31;6.00;99.90
53310;DHT22;39197;53.200;5.792;2023-02-07T08:55:56;6.40;99.90
53310;DHT22;39197;53.200;5.792;2023-02-07T08:58:22;6.60;99.90
53310;DHT22;39197;53.200;5.792;2023-02-07T09:00:47;6.70;99.90
53310;DHT22;39197;53.200;5.792;2023-02-07T09:03:13;6.80;99.90
53310;DHT22;39197;53.200;5.792;2023-02-07T09:05:39;7.10;99.90
53310;DHT22;39197;53.200;5.792;2023-02-07T09:08:05;7.40;99.90
53310;DHT22;39197;53.200;5.792;2023-02-07T09:10:31;7.40;99.90
53310;DHT22;39197;53.200;5.792;2023-02-07T09:12:56;7.60;99.90
53310;DHT22;39197;53.200;5.792;2023-02-07T09:15:22;7.90;99.90
53310;DHT22;39197;53.200;5.792;2023-02-07T09:17:47;8.40;99.90
53310;DHT22;39197;53.200;5.792;2023-02-07T09:20:13;8.90;99.90
53310;DHT22;39197;53.200;5.792;2023-02-07T09:22:39;9.00;99.90
53310;DHT22;39197;53.200;5.792;2023-02-07T09:25:23;8.90;99.90
53310;DHT22;39197;53.200;5.792;2023-02-07T09:27:49;8.70;99.90
53310;DHT22;39197;53.200;5.792;2023-02-07T09:30:15;8.70;99.90
53310;DHT22;39197;53.200;5.792;2023-02-07T09:32:41;8.70;99.90
53310;DHT22;39197;53.200;5.792;2023-02-07T09:35:07;7.70;99.90
53310;DHT22;39197;53.200;5.792;2023-02-07T09:37:33;8.10;99.90
53310;DHT22;39197;53.200;5.792;2023-02-07T09:39:59;8.10;99.90
53310;DHT22;39197;53.200;5.792;2023-02-07T09:42:40;8.60;99.90
53310;DHT22;39197;53.200;5.792;2023-02-07T09:45:09;8.30;99.90
53310;DHT22;39197;53.200;5.792;2023-02-07T09:47:38;8.50;99.90
53310;DHT22;39197;53.200;5.792;2023-02-07T09:50:27;8.60;99.90
53310;DHT22;39197;53.200;5.792;2023-02-07T09:53:11;8.00;99.90
53310;DHT22;39197;53.200;5.792;2023-02-07T09:55:58;8.50;99.90
53310;DHT22;39197;53.200;5.792;2023-02-07T10:01:25;8.70;99.90
53310;DHT22;39197;53.200;5.792;2023-02-07T10:06:30;9.30;99.90
53310;DHT22;39197;53.200;5.792;2023-02-07T10:08:58;9.50;99.90
53310;DHT22;39197;53.200;5.792;2023-02-07T10:11:50;8.90;99.90
53310;DHT22;39197;53.200;5.792;2023-02-07T10:14:32;9.40;99.90
53310;DHT22;39197;53.200;5.792;2023-02-07T10:17:10;9.60;99.90
53310;DHT22;39197;53.200;5.792;2023-02-07T10:19:56;9.90;99.90
53310;DHT22;39197;53.200;5.792;2023-02-07T10:28:03;10.30;99.90
53310;DHT22;39197;53.200;5.792;2023-02-07T10:30:31;10.90;99.90
53310;DHT22;39197;53.200;5.792;2023-02-07T10:33:01;10.50;99.90
53310;DHT22;39197;53.200;5.792;2023-02-07T10:35:30;9.80;99.90
53310;DHT22;39197;53.200;5.792;2023-02-07T10:37:59;8.80;99.90
53310;DHT22;39197;53.200;5.792;2023-02-07T10:40:33;8.80;99.90
53310;DHT22;39197;53.200;5.792;2023-02-07T10:43:07;8.80;99.90
53310;DHT22;39197;53.200;5.792;2023-02-07T10:45:35;9.30;99.90
53310;DHT22;39197;53.200;5.792;2023-02-07T10:48:11;9.60;99.90
53310;DHT22;39197;53.200;5.792;2023-02-07T10:50:37;8.80;99.90
53310;DHT22;39197;53.200;5.792;2023-02-07T10:53:03;9.00;99.90
53310;DHT22;39197;53.200;5.792;2023-02-07T10:55:44;8.80;99.90
53310;DHT22;39197;53.200;5.792;2023-02-07T10:58:21;9.50;99.90
53310;DHT22;39197;53.200;5.792;2023-02-07T11:00:50;8.60;99.90
53310;DHT22;39197;53.200;5.792;2023-02-07T11:03:23;9.40;99.90
53310;DHT22;39197;53.200;5.792;2023-02-07T11:05:58;10.00;99.90
53310;DHT22;39197;53.200;5.792;2023-02-07T11:08:26;10.00;99.90
53310;DHT22;39197;53.200;5.792;2023-02-07T11:10:55;9.80;99.90
53310;DHT22;39197;53.200;5.792;2023-02-07T11:13:24;10.10;99.90
53310;DHT22;39197;53.200;5.792;2023-02-07T11:16:02;10.00;99.90
53310;DHT22;39197;53.200;5.792;2023-02-07T11:21:47;9.60;99.90
53310;DHT22;39197;53.200;5.792;2023-02-07T11:24:17;10.30;99.90
53310;DHT22;39197;53.200;5.792;2023-02-07T11:26:56;10.20;99.90
53310;DHT22;39197;53.200;5.792;2023-02-07T11:29:24;10.40;99.90
53310;DHT22;39197;53.200;5.792;2023-02-07T11:31:51;9.90;99.90
53310;DHT22;39197;53.200;5.792;2023-02-07T11:34:51;9.20;99.90
53310;DHT22;39197;53.200;5.792;2023-02-07T11:37:28;10.40;99.90
53310;DHT22;39197;53.200;5.792;2023-02-07T11:39:57;11.00;99.90
53310;DHT22;39197;53.200;5.792;2023-02-07T11:42:40;11.20;99.90
53310;DHT22;39197;53.200;5.792;2023-02-07T11:45:13;11.40;99.90
53310;DHT22;39197;53.200;5.792;2023-02-07T11:47:41;11.90;99.90
53310;DHT22;39197;53.200;5.792;2023-02-07T11:50:11;12.20;99.90
53310;DHT22;39197;53.200;5.792;2023-02-07T11:52:53;12.30;99.90
53310;DHT22;39197;53.200;5.792;2023-02-07T11:55:33;11.40;99.90
53310;DHT22;39197;53.200;5.792;2023-02-07T11:58:09;11.10;99.90
53310;DHT22;39197;53.200;5.792;2023-02-07T12:00:36;11.60;99.90
53310;DHT22;39197;53.200;5.792;2023-02-07T12:03:19;11.10;99.90
53310;DHT22;39197;53.200;5.792;2023-02-07T12:05:48;11.10;99.90
53310;DHT22;39197;53.200;5.792;2023-02-07T12:08:18;11.30;99.90
53310;DHT22;39197;53.200;5.792;2023-02-07T12:10:49;11.60;99.90
53310;DHT22;39197;53.200;5.792;2023-02-07T12:13:29;11.70;99.90
53310;DHT22;39197;53.200;5.792;2023-02-07T12:18:32;11.20;99.90
53310;DHT22;39197;53.200;5.792;2023-02-07T12:21:23;11.80;99.90
53310;DHT22;39197;53.200;5.792;2023-02-07T12:23:57;10.80;99.90
53310;DHT22;39197;53.200;5.792;2023-02-07T12:27:19;10.90;99.90
53310;DHT22;39197;53.200;5.792;2023-02-07T12:38:40;11.20;99.90
53310;DHT22;39197;53.200;5.792;2023-02-07T12:41:20;11.00;99.90
53310;DHT22;39197;53.200;5.792;2023-02-07T12:47:00;10.50;99.90
53310;DHT22;39197;53.200;5.792;2023-02-07T12:52:25;9.10;99.90
53310;DHT22;39197;53.200;5.792;2023-02-07T13:09:06;6.60;99.90
53310;DHT22;39197;53.200;5.792;2023-02-07T13:11:57;6.30;99.90
53310;DHT22;39197;53.200;5.792;2023-02-07T13:15:00;6.20;99.90
53310;DHT22;39197;53.200;5.792;2023-02-07T13:17:52;6.70;99.90
53310;DHT22;39197;53.200;5.792;2023-02-07T13:22:59;7.90;99.90
53310;DHT22;39197;53.200;5.792;2023-02-07T13:25:41;7.70;99.90
53310;DHT22;39197;53.200;5.792;2023-02-07T13:28:13;7.80;99.90
53310;DHT22;39197;53.200;5.792;2023-02-07T13:30:43;8.30;99.90
53310;DHT22;39197;53.200;5.792;2023-02-07T13:36:15;8.30;99.90
53310;DHT22;39197;53.200;5.792;2023-02-07T13:41:31;8.90;99.90
53310;DHT22;39197;53.200;5.792;2023-02-07T13:55:38;9.80;99.90
53310;DHT22;39197;53.200;5.792;2023-02-07T14:01:20;9.40;99.90
53310;DHT22;39197;53.200;5.792;2023-02-07T14:04:09;10.20;99.90
53310;DHT22;39197;53.200;5.792;2023-02-07T14:06:41;9.50;99.90
53310;DHT22;39197;53.200;5.792;2023-02-07T14:09:14;9.60;99.90
53310;DHT22;39197;53.200;5.792;2023-02-07T14:11:40;10.20;99.90
53310;DHT22;39197;53.200;5.792;2023-02-07T14:16:52;10.30;99.90
53310;DHT22;39197;53.200;5.792;2023-02-07T14:22:22;10.00;99.90
53310;DHT22;39197;53.200;5.792;2023-02-07T14:30:19;10.20;99.90
53310;DHT22;39197;53.200;5.792;2023-02-07T14:37:43;10.00;99.90
53310;DHT22;39197;53.200;5.792;2023-02-07T14:40:22;10.00;99.90
53310;DHT22;39197;53.200;5.792;2023-02-07T14:42:58;9.50;99.90
53310;DHT22;39197;53.200;5.792;2023-02-07T14:45:32;9.00;99.90
53310;DHT22;39197;53.200;5.792;2023-02-07T14:47:58;8.30;99.90
53310;DHT22;39197;53.200;5.792;2023-02-07T14:50:27;7.70;99.90
53310;DHT22;39197;53.200;5.792;2023-02-07T14:53:03;7.20;99.90
53310;DHT22;39197;53.200;5.792;2023-02-07T14:55:51;7.00;99.90
53310;DHT22;39197;53.200;5.792;2023-02-07T14:58:39;6.60;99.90
53310;DHT22;39197;53.200;5.792;2023-02-07T15:01:12;6.70;99.90
53310;DHT22;39197;53.200;5.792;2023-02-07T15:03:38;6.90;99.90
53310;DHT22;39197;53.200;5.792;2023-02-07T15:06:18;7.30;99.90
53310;DHT22;39197;53.200;5.792;2023-02-07T15:08:58;7.80;99.90
53310;DHT22;39197;53.200;5.792;2023-02-07T15:11:26;8.30;99.90
53310;DHT22;39197;53.200;5.792;2023-02-07T15:13:56;7.70;99.90
53310;DHT22;39197;53.200;5.792;2023-02-07T15:16:25;8.10;99.90
53310;DHT22;39197;53.200;5.792;2023-02-07T15:21:43;8.60;99.90
53310;DHT22;39197;53.200;5.792;2023-02-07T15:27:03;8.70;99.90
53310;DHT22;39197;53.200;5.792;2023-02-07T15:29:32;8.70;99.90
53310;DHT22;39197;53.200;5.792;2023-02-07T15:31:58;8.10;99.90
53310;DHT22;39197;53.200;5.792;2023-02-07T15:34:27;8.20;99.90
53310;DHT22;39197;53.200;5.792;2023-02-07T15:36:58;8.50;99.90
53310;DHT22;39197;53.200;5.792;2023-02-07T15:39:26;8.30;99.90
53310;DHT22;39197;53.200;5.792;2023-02-07T15:41:54;8.20;99.90
53310;DHT22;39197;53.200;5.792;2023-02-07T15:44:27;8.00;99.90
53310;DHT22;39197;53.200;5.792;2023-02-07T15:46:57;8.20;99.90
53310;DHT22;39197;53.200;5.792;2023-02-07T15:51:52;7.70;99.90
53310;DHT22;39197;53.200;5.792;2023-02-07T15:54:19;7.80;99.90
53310;DHT22;39197;53.200;5.792;2023-02-07T15:56:56;7.80;99.90
53310;DHT22;39197;53.200;5.792;2023-02-07T15:59:24;7.30;99.90
53310;DHT22;39197;53.200;5.792;2023-02-07T16:01:56;7.20;99.90
53310;DHT22;39197;53.200;5.792;2023-02-07T16:04:24;7.20;99.90
53310;DHT22;39197;53.200;5.792;2023-02-07T16:07:05;7.00;99.90
53310;DHT22;39197;53.200;5.792;2023-02-07T16:09:36;6.90;99.90
53310;DHT22;39197;53.200;5.792;2023-02-07T16:12:30;6.70;99.90
53310;DHT22;39197;53.200;5.792;2023-02-07T16:14:58;6.40;99.90
53310;DHT22;39197;53.200;5.792;2023-02-07T16:17:35;6.20;99.90
53310;DHT22;39197;53.200;5.792;2023-02-07T16:20:01;6.10;99.90
53310;DHT22;39197;53.200;5.792;2023-02-07T16:22:29;5.90;99.90
53310;DHT22;39197;53.200;5.792;2023-02-07T16:24:59;5.50;99.90
53310;DHT22;39197;53.200;5.792;2023-02-07T16:27:26;5.40;99.90
53310;DHT22;39197;53.200;5.792;2023-02-07T16:29:58;5.20;99.90
53310;DHT22;39197;53.200;5.792;2023-02-07T16:32:26;5.00;99.90
53310;DHT22;39197;53.200;5.792;2023-02-07T16:34:53;4.90;99.90
53310;DHT22;39197;53.200;5.792;2023-02-07T16:37:18;4.80;99.90
53310;DHT22;39197;53.200;5.792;2023-02-07T16:39:44;4.70;99.90
53310;DHT22;39197;53.200;5.792;2023-02-07T16:42:14;4.60;99.90
53310;DHT22;39197;53.200;5.792;2023-02-07T16:44:40;4.50;99.90
53310;DHT22;39197;53.200;5.792;2023-02-07T16:47:06;4.50;99.90
53310;DHT22;39197;53.200;5.792;2023-02-07T16:49:32;4.50;99.90
53310;DHT22;39197;53.200;5.792;2023-02-07T16:51:58;4.50;99.90
53310;DHT22;39197;53.200;5.792;2023-02-07T16:54:24;4.50;99.90
53310;DHT22;39197;53.200;5.792;2023-02-07T16:56:52;4.50;99.90
53310;DHT22;39197;53.200;5.792;2023-02-07T16:59:21;4.50;99.90
53310;DHT22;39197;53.200;5.792;2023-02-07T17:01:48;4.40;99.90
53310;DHT22;39197;53.200;5.792;2023-02-07T17:04:14;4.30;99.90
53310;DHT22;39197;53.200;5.792;2023-02-07T17:06:41;4.20;99.90
53310;DHT22;39197;53.200;5.792;2023-02-07T17:09:21;4.20;99.90
53310;DHT22;39197;53.200;5.792;2023-02-07T17:11:48;4.10;99.90
53310;DHT22;39197;53.200;5.792;2023-02-07T17:14:14;4.20;99.90
53310;DHT22;39197;53.200;5.792;2023-02-07T17:16:40;4.10;99.90
53310;DHT22;39197;53.200;5.792;2023-02-07T17:19:14;4.10;99.90
53310;DHT22;39197;53.200;5.792;2023-02-07T17:21:40;4.10;99.90
53310;DHT22;39197;53.200;5.792;2023-02-07T17:24:09;4.00;99.90
53310;DHT22;39197;53.200;5.792;2023-02-07T17:26:37;4.00;99.90
53310;DHT22;39197;53.200;5.792;2023-02-07T17:29:05;3.90;99.90
53310;DHT22;39197;53.200;5.792;2023-02-07T17:31:31;3.90;99.90
53310;DHT22;39197;53.200;5.792;2023-02-07T17:33:57;3.80;99.90
53310;DHT22;39197;53.200;5.792;2023-02-07T17:36:23;3.70;99.90
53310;DHT22;39197;53.200;5.792;2023-02-07T17:38:49;3.70;99.90
53310;DHT22;39197;53.200;5.792;2023-02-07T17:41:15;3.60;99.90
53310;DHT22;39197;53.200;5.792;2023-02-07T17:43:42;3.60;99.90
53310;DHT22;39197;53.200;5.792;2023-02-07T17:46:18;3.60;99.90
53310;DHT22;39197;53.200;5.792;2023-02-07T17:48:45;3.60;99.90
53310;DHT22;39197;53.200;5.792;2023-02-07T17:51:13;3.60;99.90
53310;DHT22;39197;53.200;5.792;2023-02-07T17:53:39;3.60;99.90
53310;DHT22;39197;53.200;5.792;2023-02-07T17:56:05;3.60;99.90
53310;DHT22;39197;53.200;5.792;2023-02-07T17:58:32;3.50;99.90
53310;DHT22;39197;53.200;5.792;2023-02-07T18:00:59;3.50;99.90
53310;DHT22;39197;53.200;5.792;2023-02-07T18:03:24;3.40;99.90